createdAt,value
2022-10-30T00:01:34.780Z,6.75
2022-10-30T00:04:01.299Z,6.20
2022-10-30T00:06:34.988Z,6.65
2022-10-30T00:10:05.456Z,6.60
2022-10-30T00:12:09.977Z,5.95
2022-10-30T00:14:55.639Z,6.60
2022-10-30T00:17:32.361Z,6.05
2022-10-30T00:20:07.773Z,6.90
2022-10-30T00:22:38.928Z,5.95
2022-10-30T00:25:13.606Z,6.78
2022-10-30T00:27:42.061Z,5.53
2022-10-30T00:30:20.588Z,6.53
2022-10-30T00:32:50.448Z,5.63
2022-10-30T00:35:30.393Z,6.25
2022-10-30T00:38:01.149Z,5.70
2022-10-30T00:40:30.029Z,5.45
2022-10-30T00:43:00.488Z,5.43
2022-10-30T00:45:30.379Z,4.22
2022-10-30T00:48:05.789Z,3.40
2022-10-30T00:50:38.596Z,3.67
2022-10-30T00:53:09.164Z,3.17
2022-10-30T00:55:42.068Z,3.10
2022-10-30T00:58:14.811Z,2.23
2022-10-30T01:00:52.206Z,2.42
2022-10-30T01:03:22.541Z,2.83
2022-10-30T01:05:56.815Z,2.92
2022-10-30T01:08:25.367Z,3.05
2022-10-30T01:10:53.918Z,2.72
2022-10-30T01:13:24.616Z,2.22
2022-10-30T01:16:10.444Z,2.92
2022-10-30T01:18:48.028Z,2.72
2022-10-30T01:21:29.061Z,2.15
2022-10-30T01:24:14.523Z,2.55
2022-10-30T01:26:50.831Z,2.60
2022-10-30T01:29:31.504Z,2.83
2022-10-30T01:32:20.857Z,2.30
2022-10-30T01:35:15.174Z,2.60
2022-10-30T01:40:21.619Z,1.90
2022-10-30T01:42:52.753Z,2.28
2022-10-30T01:45:27.475Z,2.85
2022-10-30T01:48:20.054Z,2.92
2022-10-30T01:51:01.856Z,4.35
2022-10-30T01:53:42.774Z,4.40
2022-10-30T01:56:20.336Z,5.57
2022-10-30T01:58:56.863Z,6.40
2022-10-30T02:01:26.658Z,9.32
2022-10-30T02:03:56.851Z,5.97
2022-10-30T02:06:25.502Z,5.47
2022-10-30T02:08:57.124Z,5.82
2022-10-30T02:11:27.136Z,5.50
2022-10-30T02:14:00.244Z,6.28
2022-10-30T02:16:36.724Z,6.55
2022-10-30T02:19:07.873Z,6.40
2022-10-30T02:21:41.600Z,6.03
2022-10-30T02:26:38.439Z,6.78
2022-10-30T02:29:10.994Z,5.85
2022-10-30T02:31:39.434Z,4.97
2022-10-30T02:34:08.046Z,4.50
2022-10-30T02:36:38.003Z,4.88
2022-10-30T02:39:08.277Z,5.50
2022-10-30T02:41:41.236Z,4.82
2022-10-30T02:44:12.220Z,5.18
2022-10-30T02:46:40.500Z,5.65
2022-10-30T02:49:08.810Z,6.68
2022-10-30T02:51:38.642Z,5.28
2022-10-30T02:54:07.074Z,5.88
2022-10-30T02:56:35.404Z,5.32
2022-10-30T02:59:03.726Z,4.95
2022-10-30T03:01:32.374Z,5.85
2022-10-30T03:04:00.829Z,5.93
2022-10-30T03:06:29.441Z,4.97
2022-10-30T03:08:59.271Z,5.15
2022-10-30T03:11:27.858Z,6.03
2022-10-30T03:13:56.710Z,6.13
2022-10-30T03:16:29.607Z,4.57
2022-10-30T03:18:58.977Z,5.50
2022-10-30T03:21:28.956Z,5.40
2022-10-30T03:23:59.333Z,4.97
2022-10-30T03:26:28.024Z,4.97
2022-10-30T03:28:56.474Z,5.25
2022-10-30T03:31:24.781Z,5.25
2022-10-30T03:33:54.363Z,4.63
2022-10-30T03:36:23.396Z,4.65
2022-10-30T03:38:51.771Z,4.90
2022-10-30T03:41:23.300Z,4.57
2022-10-30T03:43:53.589Z,4.40
2022-10-30T03:46:21.951Z,4.28
2022-10-30T03:48:53.275Z,4.25
2022-10-30T03:51:21.956Z,4.75
2022-10-30T03:54:01.076Z,6.03
2022-10-30T03:56:33.296Z,4.82
2022-10-30T03:59:01.919Z,4.82
2022-10-30T04:01:30.640Z,4.13
2022-10-30T04:04:01.029Z,4.18
2022-10-30T04:06:29.545Z,4.35
2022-10-30T04:08:58.065Z,4.75
2022-10-30T04:11:26.910Z,5.45
2022-10-30T04:13:58.921Z,4.80
2022-10-30T04:16:27.660Z,4.85
2022-10-30T04:18:56.156Z,5.05
2022-10-30T04:21:24.774Z,5.07
2022-10-30T04:23:54.300Z,5.60
2022-10-30T04:26:27.183Z,4.47
2022-10-30T04:28:57.358Z,4.17
2022-10-30T04:31:25.924Z,5.35
2022-10-30T04:33:54.441Z,4.60
2022-10-30T04:36:24.561Z,4.35
2022-10-30T04:38:52.976Z,6.53
2022-10-30T04:41:21.318Z,4.65
2022-10-30T04:43:50.264Z,5.20
2022-10-30T04:46:20.244Z,5.95
2022-10-30T04:48:48.591Z,5.97
2022-10-30T04:51:16.930Z,5.68
2022-10-30T04:53:45.565Z,5.60
2022-10-30T04:56:14.037Z,5.30
2022-10-30T04:58:42.586Z,5.90
2022-10-30T05:01:11.052Z,6.30
2022-10-30T05:03:40.912Z,5.80
2022-10-30T05:06:17.188Z,6.95
2022-10-30T05:08:45.578Z,5.80
2022-10-30T05:11:14.104Z,6.20
2022-10-30T05:13:42.446Z,6.55
2022-10-30T05:16:10.722Z,6.20
2022-10-30T05:18:40.531Z,6.25
2022-10-30T05:21:09.694Z,8.25
2022-10-30T05:23:38.037Z,7.00
2022-10-30T05:26:06.768Z,7.35
2022-10-30T05:28:35.032Z,7.10
2022-10-30T05:31:03.323Z,7.20
2022-10-30T05:33:31.795Z,6.85
2022-10-30T05:36:02.107Z,7.93
2022-10-30T05:38:30.379Z,5.40
2022-10-30T05:40:58.580Z,5.35
2022-10-30T05:43:26.863Z,6.75
2022-10-30T05:45:55.192Z,6.40
2022-10-30T05:48:23.380Z,6.35
2022-10-30T05:50:51.666Z,5.43
2022-10-30T05:53:21.377Z,6.05
2022-10-30T05:55:49.751Z,5.78
2022-10-30T05:58:18.527Z,6.68
2022-10-30T06:00:46.890Z,6.80
2022-10-30T06:03:15.489Z,7.50
2022-10-30T06:05:47.868Z,7.10
2022-10-30T06:08:17.808Z,6.30
2022-10-30T06:10:49.025Z,6.32
2022-10-30T06:13:17.268Z,7.25
2022-10-30T06:15:47.140Z,6.55
2022-10-30T06:18:33.281Z,6.03
2022-10-30T08:01:52.719Z,8.77
2022-10-30T08:04:20.910Z,7.53
2022-10-30T08:06:48.975Z,6.65
2022-10-30T08:09:17.095Z,10.88
2022-10-30T08:11:45.224Z,8.75
2022-10-30T08:14:13.294Z,10.32
2022-10-30T08:16:41.439Z,7.47
2022-10-30T08:19:10.972Z,8.05
2022-10-30T08:21:39.294Z,5.13
2022-10-30T08:24:08.074Z,7.47
2022-10-30T08:26:36.319Z,7.35
2022-10-30T08:29:04.829Z,10.25
2022-10-30T08:31:33.072Z,10.07
2022-10-30T08:34:01.122Z,8.23
2022-10-30T08:36:30.611Z,9.68
2022-10-30T08:38:59.166Z,6.57
2022-10-30T08:41:27.219Z,7.25
2022-10-30T08:43:55.292Z,7.18
2022-10-30T08:46:23.359Z,7.85
2022-10-30T08:48:51.451Z,8.23
2022-10-30T08:51:19.510Z,7.07
2022-10-30T08:53:50.887Z,5.78
2022-10-30T08:56:19.116Z,8.40
2022-10-30T08:58:47.282Z,8.63
2022-10-30T09:01:15.447Z,7.75
2022-10-30T09:03:44.533Z,5.35
2022-10-30T09:06:12.837Z,6.00
2022-10-30T09:08:40.941Z,8.55
2022-10-30T09:11:10.428Z,8.27
2022-10-30T09:13:38.475Z,4.90
2022-10-30T09:16:07.173Z,6.78
2022-10-30T09:18:37.003Z,6.55
2022-10-30T09:21:05.572Z,6.38
2022-10-30T09:23:34.132Z,5.63
2022-10-30T09:26:02.238Z,7.13
2022-10-30T09:28:31.819Z,6.57
2022-10-30T09:30:59.977Z,5.28
2022-10-30T09:33:28.277Z,6.82
2022-10-30T09:35:56.522Z,5.20
2022-10-30T09:38:24.723Z,7.93
2022-10-30T09:41:10.610Z,5.90
2022-10-30T09:43:49.893Z,6.68
2022-10-30T09:46:35.340Z,5.15
2022-10-30T09:49:19.892Z,5.50
2022-10-30T09:52:05.134Z,6.82
2022-10-30T09:54:44.273Z,6.53
2022-10-30T09:57:22.287Z,5.85
2022-10-30T10:04:05.677Z,5.53
2022-10-30T10:06:35.619Z,5.85
2022-10-30T10:09:09.203Z,6.05
2022-10-30T10:11:41.317Z,6.82
2022-10-30T10:19:39.895Z,5.60
2022-10-30T10:22:39.901Z,4.75
2022-10-30T10:25:13.609Z,6.30
2022-10-30T10:30:21.265Z,4.53
2022-10-30T10:33:13.377Z,4.55
2022-10-30T10:36:02.745Z,5.47
2022-10-30T10:38:49.334Z,4.55
2022-10-30T10:41:29.479Z,5.28
2022-10-30T10:44:13.926Z,5.88
2022-10-30T10:47:04.380Z,5.28
2022-10-30T10:49:54.234Z,6.05
2022-10-30T10:52:30.101Z,3.80
2022-10-30T10:55:03.855Z,4.32
2022-10-30T11:00:05.602Z,5.18
2022-10-30T11:02:40.438Z,5.40
2022-10-30T11:05:18.991Z,4.40
2022-10-30T11:07:50.645Z,3.95
2022-10-30T11:10:21.153Z,5.30
2022-10-30T11:12:49.663Z,4.40
2022-10-30T11:15:31.703Z,6.22
2022-10-30T11:20:50.378Z,3.90
2022-10-30T11:23:41.246Z,4.82
2022-10-30T11:26:32.380Z,5.55
2022-10-30T11:29:05.638Z,4.68
2022-10-30T11:31:37.949Z,6.03
2022-10-30T11:34:34.338Z,4.93
2022-10-30T11:37:03.484Z,5.30
2022-10-30T11:39:35.446Z,5.07
2022-10-30T11:42:07.840Z,4.78
2022-10-30T11:44:39.342Z,4.63
2022-10-30T11:47:09.111Z,4.95
2022-10-30T11:49:45.013Z,5.32
2022-10-30T11:52:15.277Z,5.82
2022-10-30T11:54:48.463Z,5.75
2022-10-30T11:57:23.156Z,5.75
2022-10-30T11:59:59.329Z,6.50
2022-10-30T12:02:31.622Z,5.50
2022-10-30T12:05:04.174Z,5.53
2022-10-30T12:07:33.653Z,5.03
2022-10-30T12:10:04.684Z,4.43
2022-10-30T12:12:37.125Z,5.63
2022-10-30T12:15:20.151Z,5.05
2022-10-30T12:17:53.768Z,4.03
2022-10-30T12:22:50.934Z,4.60
2022-10-30T12:25:25.818Z,4.25
2022-10-30T12:28:01.301Z,4.85
2022-10-30T12:30:32.559Z,4.45
2022-10-30T12:33:05.849Z,4.50
2022-10-30T12:35:42.354Z,5.15
2022-10-30T12:38:17.207Z,4.82
2022-10-30T12:40:58.294Z,5.30
2022-10-30T12:43:28.712Z,4.63
2022-10-30T12:46:08.260Z,4.53
2022-10-30T12:48:42.921Z,4.75
2022-10-30T12:51:21.289Z,4.65
2022-10-30T12:53:59.436Z,4.32
2022-10-30T12:56:34.811Z,4.53
2022-10-30T12:59:23.025Z,5.35
2022-10-30T13:01:57.904Z,4.47
2022-10-30T13:04:30.502Z,4.55
2022-10-30T13:07:06.336Z,5.20
2022-10-30T13:09:39.345Z,4.20
2022-10-30T13:12:14.045Z,6.47
2022-10-30T13:14:46.769Z,5.68
2022-10-30T13:17:15.981Z,5.17
2022-10-30T13:19:47.054Z,5.28
2022-10-30T13:22:21.656Z,4.50
2022-10-30T13:25:03.581Z,5.60
2022-10-30T13:27:42.986Z,4.95
2022-10-30T13:30:16.049Z,4.68
2022-10-30T13:33:01.374Z,4.50
2022-10-30T13:35:37.283Z,5.50
2022-10-30T13:38:22.491Z,4.18
2022-10-30T13:40:57.982Z,5.75
2022-10-30T13:43:41.733Z,4.70
2022-10-30T13:46:32.527Z,4.05
2022-10-30T13:49:12.119Z,4.68
2022-10-30T13:51:44.432Z,4.53
2022-10-30T13:54:20.866Z,4.05
2022-10-30T13:56:50.620Z,3.97
2022-10-30T13:59:34.286Z,4.95
2022-10-30T14:02:10.293Z,3.22
2022-10-30T14:04:44.806Z,4.18
2022-10-30T14:07:29.039Z,4.22
2022-10-30T14:10:04.435Z,4.10
2022-10-30T14:12:47.624Z,4.40
2022-10-30T14:15:42.098Z,3.75
2022-10-30T14:18:31.553Z,4.10
2022-10-30T14:21:12.451Z,3.58
2022-10-30T14:23:41.170Z,3.70
2022-10-30T14:26:30.716Z,3.97
2022-10-30T14:28:59.352Z,4.38
2022-10-30T14:31:39.037Z,3.70
2022-10-30T14:34:47.286Z,3.72
2022-10-30T14:37:15.531Z,4.50
2022-10-30T14:39:45.259Z,4.72
2022-10-30T14:42:20.509Z,5.03
2022-10-30T14:45:01.009Z,3.50
2022-10-30T14:47:46.277Z,4.45
2022-10-30T14:50:24.484Z,3.72
2022-10-30T14:53:18.009Z,4.32
2022-10-30T14:55:56.014Z,3.88
2022-10-30T14:58:27.532Z,4.43
2022-10-30T15:01:25.928Z,3.67
2022-10-30T15:04:07.694Z,4.43
2022-10-30T15:06:43.947Z,3.35
2022-10-30T15:09:25.326Z,3.70
2022-10-30T15:12:24.529Z,3.75
2022-10-30T15:14:58.773Z,3.92
2022-10-30T15:17:31.913Z,4.00
2022-10-30T15:20:06.372Z,4.15
2022-10-30T15:22:36.243Z,3.85
2022-10-30T15:25:05.151Z,3.83
2022-10-30T15:27:35.936Z,3.83
2022-10-30T15:30:06.189Z,4.32
2022-10-30T15:32:34.478Z,4.45
2022-10-30T15:35:06.362Z,4.70
2022-10-30T15:37:34.885Z,4.05
2022-10-30T15:40:27.513Z,4.10
2022-10-30T15:42:57.644Z,5.15
2022-10-30T15:45:31.444Z,3.75
2022-10-30T15:50:31.906Z,4.65
2022-10-30T15:53:01.010Z,4.40
2022-10-30T15:55:32.684Z,4.45
2022-10-30T15:58:05.133Z,4.28
2022-10-30T16:00:36.550Z,4.28
2022-10-30T16:03:07.429Z,4.22
2022-10-30T16:05:37.668Z,4.57
2022-10-30T16:08:15.549Z,4.90
2022-10-30T16:10:46.029Z,4.40
2022-10-30T16:13:19.270Z,4.40
2022-10-30T16:15:48.354Z,5.32
2022-10-30T16:18:21.298Z,5.13
2022-10-30T16:20:53.559Z,4.05
2022-10-30T16:23:22.652Z,3.88
2022-10-30T16:25:56.429Z,3.80
2022-10-30T16:28:26.936Z,4.55
2022-10-30T16:30:55.634Z,4.53
2022-10-30T16:33:27.320Z,3.88
2022-10-30T16:35:57.757Z,4.32
2022-10-30T16:38:30.265Z,3.83
2022-10-30T16:40:59.341Z,4.95
2022-10-30T16:43:30.266Z,5.32
2022-10-30T16:46:14.078Z,4.63
2022-10-30T16:48:45.610Z,4.38
2022-10-30T16:51:17.909Z,5.10
2022-10-30T16:53:48.804Z,3.60
2022-10-30T16:56:23.557Z,4.18
2022-10-30T16:58:52.915Z,4.93
2022-10-30T17:01:26.421Z,4.65
2022-10-30T17:06:30.392Z,3.53
2022-10-30T17:09:00.702Z,4.60
2022-10-30T17:11:37.803Z,5.95
2022-10-30T17:14:17.345Z,5.97
2022-10-30T17:16:54.374Z,6.60
2022-10-30T17:19:46.620Z,7.47
2022-10-30T17:22:20.815Z,9.40
2022-10-30T17:24:50.048Z,11.45
2022-10-30T17:27:30.713Z,8.40
2022-10-30T17:29:59.139Z,7.93
2022-10-30T17:32:28.828Z,6.53
2022-10-30T17:35:00.929Z,5.63
2022-10-30T17:37:31.147Z,4.97
2022-10-30T17:39:59.398Z,5.00
2022-10-30T17:42:27.656Z,4.95
2022-10-30T17:44:55.996Z,4.20
2022-10-30T17:47:24.435Z,3.85
2022-10-30T17:49:52.714Z,5.22
2022-10-30T17:52:21.832Z,4.60
2022-10-30T17:54:52.017Z,4.93
2022-10-30T17:57:20.360Z,4.43
2022-10-30T17:59:48.686Z,5.03
2022-10-30T18:02:19.213Z,4.53
2022-10-30T18:04:49.028Z,4.65
2022-10-30T18:07:18.558Z,3.70
2022-10-30T18:09:46.841Z,4.93
2022-10-30T18:12:19.436Z,3.75
2022-10-30T18:14:47.695Z,4.15
2022-10-30T18:17:15.950Z,4.28
2022-10-30T18:19:44.244Z,4.13
2022-10-30T18:22:12.540Z,3.00
2022-10-30T18:24:40.811Z,4.22
2022-10-30T18:27:09.119Z,3.55
2022-10-30T18:29:39.750Z,3.53
2022-10-30T18:32:10.189Z,3.17
2022-10-30T18:34:38.616Z,3.70
2022-10-30T18:37:06.899Z,4.10
2022-10-30T18:42:03.760Z,3.28
2022-10-30T18:44:32.075Z,3.75
2022-10-30T18:47:03.364Z,3.08
2022-10-30T18:49:33.654Z,4.05
2022-10-30T18:52:01.909Z,4.63
2022-10-30T18:54:30.212Z,4.93
2022-10-30T18:56:58.406Z,5.32
2022-10-30T18:59:26.767Z,4.00
2022-10-30T19:01:55.260Z,4.13
2022-10-30T19:04:27.262Z,5.13
2022-10-30T19:06:55.727Z,5.07
2022-10-30T19:09:24.172Z,4.57
2022-10-30T19:11:53.116Z,3.88
2022-10-30T19:14:21.762Z,3.85
2022-10-30T19:16:50.862Z,3.53
2022-10-30T19:19:19.283Z,4.03
2022-10-30T19:21:48.912Z,4.78
2022-10-30T19:24:18.088Z,4.32
2022-10-30T19:26:46.314Z,4.28
2022-10-30T19:29:16.455Z,4.20
2022-10-30T19:31:53.883Z,3.50
2022-10-30T19:35:05.107Z,3.60
2022-10-30T19:39:07.588Z,4.38
2022-10-30T19:44:58.322Z,3.53
2022-10-30T19:47:26.549Z,3.28
2022-10-30T19:49:54.758Z,2.97
2022-10-30T19:55:23.199Z,4.13
2022-10-30T19:57:51.491Z,4.13
2022-10-30T20:00:24.461Z,3.55
2022-10-30T20:02:53.689Z,2.90
2022-10-30T20:05:23.524Z,3.25
2022-10-30T20:08:01.608Z,3.28
2022-10-30T20:10:32.224Z,2.70
2022-10-30T20:13:56.082Z,3.53
2022-10-30T20:16:51.177Z,2.83
2022-10-30T20:19:48.581Z,3.70
2022-10-30T20:25:03.150Z,2.55
2022-10-30T20:27:31.293Z,2.83
2022-10-30T20:36:01.902Z,3.03
2022-10-30T20:38:33.218Z,2.78
2022-10-30T20:41:02.609Z,4.03
2022-10-30T20:43:33.191Z,3.58
2022-10-30T20:46:02.782Z,3.38
2022-10-30T20:48:31.744Z,3.00
2022-10-30T20:54:06.234Z,2.85
2022-10-30T20:56:42.121Z,2.35
2022-10-30T20:59:10.261Z,3.10
2022-10-30T21:01:42.479Z,3.10
2022-10-30T21:04:12.397Z,2.47
2022-10-30T21:06:43.557Z,3.38
2022-10-30T21:09:11.935Z,2.85
2022-10-30T21:11:40.638Z,3.30
2022-10-30T21:14:09.024Z,2.50
2022-10-30T21:16:37.222Z,2.75
2022-10-30T21:19:05.767Z,1.90
2022-10-30T21:21:33.857Z,2.40
2022-10-30T21:24:03.869Z,2.60
2022-10-30T21:26:32.172Z,2.70
2022-10-30T21:29:00.435Z,2.30
2022-10-30T21:31:28.892Z,2.20
2022-10-30T21:33:57.507Z,1.80
2022-10-30T21:36:25.764Z,3.63
2022-10-30T21:38:54.707Z,2.35
2022-10-30T21:41:32.921Z,2.65
2022-10-30T21:44:02.164Z,2.28
2022-10-30T21:46:32.614Z,2.92
2022-10-30T21:49:06.430Z,2.70
2022-10-30T21:51:35.157Z,3.15
2022-10-30T21:54:03.746Z,2.17
2022-10-30T21:56:33.341Z,2.80
2022-10-30T21:59:04.923Z,3.10
2022-10-30T22:01:34.740Z,2.42
2022-10-30T22:04:04.138Z,2.92
2022-10-30T22:06:51.251Z,3.10
2022-10-30T22:09:21.315Z,3.47
2022-10-30T22:11:50.741Z,2.90
2022-10-30T22:14:18.831Z,2.83
2022-10-30T22:16:47.097Z,3.60
2022-10-30T22:19:15.132Z,3.50
2022-10-30T22:21:43.163Z,3.30
2022-10-30T22:24:13.158Z,4.05
2022-10-30T22:26:41.182Z,3.58
2022-10-30T22:29:10.731Z,2.72
2022-10-30T22:31:40.128Z,3.10
2022-10-30T22:34:08.929Z,3.22
2022-10-30T22:36:37.460Z,3.10
2022-10-30T22:39:10.588Z,3.20
2022-10-30T22:41:38.813Z,4.22
2022-10-30T22:44:09.043Z,3.92
2022-10-30T22:46:42.226Z,4.10
2022-10-30T22:49:10.460Z,3.45
2022-10-30T22:51:40.227Z,3.85
2022-10-30T22:54:11.310Z,4.45
2022-10-30T22:56:40.229Z,3.95
2022-10-30T22:59:11.637Z,4.25
2022-10-30T23:01:42.167Z,4.72
2022-10-30T23:04:14.198Z,4.25
2022-10-30T23:06:42.667Z,4.35
2022-10-30T23:09:16.685Z,3.53
2022-10-30T23:11:44.668Z,4.45
2022-10-30T23:14:13.152Z,3.85
2022-10-30T23:16:43.211Z,4.25
2022-10-30T23:19:12.142Z,4.18
2022-10-30T23:21:40.298Z,3.72
2022-10-30T23:24:09.125Z,4.28
2022-10-30T23:26:37.212Z,4.32
2022-10-30T23:29:06.120Z,4.32
2022-10-30T23:31:37.454Z,3.90
2022-10-30T23:34:09.390Z,4.53
2022-10-30T23:36:38.035Z,4.60
2022-10-30T23:39:08.927Z,3.90
2022-10-30T23:41:37.846Z,4.15
2022-10-30T23:44:08.090Z,4.05
2022-10-30T23:46:36.915Z,3.58
2022-10-30T23:49:07.669Z,4.13
2022-10-30T23:51:36.223Z,4.75
2022-10-30T23:54:05.602Z,4.95
2022-10-30T23:56:34.013Z,4.30
2022-10-30T23:59:02.282Z,4.63
